sensor_id;sensor_type;location;lat;lon;timestamp;P1;durP1;ratioP1;P2;durP2;ratioP2
26686;SDS011;14298;50.900;4.648;2022-10-31T00:01:28;3.57;;;2.23;;
26686;SDS011;14298;50.900;4.648;2022-10-31T00:03:58;2.50;;;1.83;;
26686;SDS011;14298;50.900;4.648;2022-10-31T00:06:26;3.27;;;2.17;;
26686;SDS011;14298;50.900;4.648;2022-10-31T00:08:59;2.13;;;1.93;;
26686;SDS011;14298;50.900;4.648;2022-10-31T00:11:29;2.77;;;2.57;;
26686;SDS011;14298;50.900;4.648;2022-10-31T00:13:58;5.47;;;2.50;;
26686;SDS011;14298;50.900;4.648;2022-10-31T00:16:26;3.67;;;2.27;;
26686;SDS011;14298;50.900;4.648;2022-10-31T00:18:56;2.27;;;2.07;;
26686;SDS011;14298;50.900;4.648;2022-10-31T00:21:26;2.00;;;1.90;;
26686;SDS011;14298;50.900;4.648;2022-10-31T00:23:56;5.13;;;2.60;;
26686;SDS011;14298;50.900;4.648;2022-10-31T00:26:29;2.90;;;2.57;;
26686;SDS011;14298;50.900;4.648;2022-10-31T00:28:58;2.87;;;2.60;;
26686;SDS011;14298;50.900;4.648;2022-10-31T00:31:27;1.80;;;1.60;;
26686;SDS011;14298;50.900;4.648;2022-10-31T00:33:57;1.73;;;1.60;;
26686;SDS011;14298;50.900;4.648;2022-10-31T00:36:25;1.80;;;1.63;;
26686;SDS011;14298;50.900;4.648;2022-10-31T00:38:53;2.33;;;2.07;;
26686;SDS011;14298;50.900;4.648;2022-10-31T00:41:22;3.37;;;1.97;;
26686;SDS011;14298;50.900;4.648;2022-10-31T00:43:50;1.77;;;1.67;;
26686;SDS011;14298;50.900;4.648;2022-10-31T00:46:18;2.37;;;2.03;;
26686;SDS011;14298;50.900;4.648;2022-10-31T00:48:47;2.87;;;1.90;;
26686;SDS011;14298;50.900;4.648;2022-10-31T00:51:15;3.07;;;2.37;;
26686;SDS011;14298;50.900;4.648;2022-10-31T00:53:43;2.40;;;2.20;;
26686;SDS011;14298;50.900;4.648;2022-10-31T00:56:12;5.83;;;2.13;;
26686;SDS011;14298;50.900;4.648;2022-10-31T00:58:40;2.17;;;2.07;;
26686;SDS011;14298;50.900;4.648;2022-10-31T01:01:08;3.77;;;2.67;;
26686;SDS011;14298;50.900;4.648;2022-10-31T01:03:36;3.30;;;2.13;;
26686;SDS011;14298;50.900;4.648;2022-10-31T01:06:07;1.47;;;1.37;;
26686;SDS011;14298;50.900;4.648;2022-10-31T01:08:38;2.17;;;1.87;;
26686;SDS011;14298;50.900;4.648;2022-10-31T01:11:07;4.07;;;2.50;;
26686;SDS011;14298;50.900;4.648;2022-10-31T01:13:37;3.73;;;2.80;;
26686;SDS011;14298;50.900;4.648;2022-10-31T01:16:07;1.70;;;1.60;;
26686;SDS011;14298;50.900;4.648;2022-10-31T01:18:37;9.63;;;2.10;;
26686;SDS011;14298;50.900;4.648;2022-10-31T01:21:07;2.03;;;1.87;;
26686;SDS011;14298;50.900;4.648;2022-10-31T01:23:37;1.90;;;1.80;;
26686;SDS011;14298;50.900;4.648;2022-10-31T01:26:07;1.57;;;1.47;;
26686;SDS011;14298;50.900;4.648;2022-10-31T01:28:49;2.63;;;1.50;;
26686;SDS011;14298;50.900;4.648;2022-10-31T01:34:03;2.53;;;2.07;;
26686;SDS011;14298;50.900;4.648;2022-10-31T01:36:34;2.13;;;1.90;;
26686;SDS011;14298;50.900;4.648;2022-10-31T01:39:05;5.50;;;2.77;;
26686;SDS011;14298;50.900;4.648;2022-10-31T01:41:36;2.17;;;1.97;;
26686;SDS011;14298;50.900;4.648;2022-10-31T01:46:46;3.17;;;2.07;;
26686;SDS011;14298;50.900;4.648;2022-10-31T01:49:30;3.10;;;2.43;;
26686;SDS011;14298;50.900;4.648;2022-10-31T01:52:10;2.87;;;1.90;;
26686;SDS011;14298;50.900;4.648;2022-10-31T01:54:37;2.40;;;2.20;;
26686;SDS011;14298;50.900;4.648;2022-10-31T01:57:08;1.87;;;1.77;;
26686;SDS011;14298;50.900;4.648;2022-10-31T02:02:28;2.13;;;1.87;;
26686;SDS011;14298;50.900;4.648;2022-10-31T02:05:00;1.57;;;1.40;;
26686;SDS011;14298;50.900;4.648;2022-10-31T02:07:32;1.73;;;1.63;;
26686;SDS011;14298;50.900;4.648;2022-10-31T02:10:02;1.53;;;1.50;;
26686;SDS011;14298;50.900;4.648;2022-10-31T02:12:31;3.50;;;2.03;;
26686;SDS011;14298;50.900;4.648;2022-10-31T02:15:02;2.33;;;2.13;;
26686;SDS011;14298;50.900;4.648;2022-10-31T02:17:32;1.83;;;1.73;;
26686;SDS011;14298;50.900;4.648;2022-10-31T02:22:53;2.07;;;1.87;;
26686;SDS011;14298;50.900;4.648;2022-10-31T02:33:47;3.10;;;2.00;;
26686;SDS011;14298;50.900;4.648;2022-10-31T02:36:34;1.77;;;1.67;;
26686;SDS011;14298;50.900;4.648;2022-10-31T02:42:02;3.43;;;2.13;;
26686;SDS011;14298;50.900;4.648;2022-10-31T02:47:16;2.07;;;1.87;;
26686;SDS011;14298;50.900;4.648;2022-10-31T02:52:39;4.00;;;2.60;;
26686;SDS011;14298;50.900;4.648;2022-10-31T02:55:12;2.63;;;2.03;;
26686;SDS011;14298;50.900;4.648;2022-10-31T02:57:42;2.23;;;2.03;;
26686;SDS011;14298;50.900;4.648;2022-10-31T03:00:10;3.30;;;2.20;;
26686;SDS011;14298;50.900;4.648;2022-10-31T03:05:28;2.73;;;2.47;;
26686;SDS011;14298;50.900;4.648;2022-10-31T03:08:00;2.10;;;1.90;;
26686;SDS011;14298;50.900;4.648;2022-10-31T03:13:34;2.37;;;2.17;;
26686;SDS011;14298;50.900;4.648;2022-10-31T03:16:06;2.30;;;2.10;;
26686;SDS011;14298;50.900;4.648;2022-10-31T03:21:37;2.40;;;2.17;;
26686;SDS011;14298;50.900;4.648;2022-10-31T03:24:16;2.27;;;2.03;;
26686;SDS011;14298;50.900;4.648;2022-10-31T03:26:52;2.73;;;1.77;;
26686;SDS011;14298;50.900;4.648;2022-10-31T03:29:18;2.77;;;1.43;;
26686;SDS011;14298;50.900;4.648;2022-10-31T03:31:50;2.43;;;2.20;;
26686;SDS011;14298;50.900;4.648;2022-10-31T03:34:20;3.33;;;2.17;;
26686;SDS011;14298;50.900;4.648;2022-10-31T03:36:49;1.87;;;1.77;;
26686;SDS011;14298;50.900;4.648;2022-10-31T03:39:20;1.90;;;1.67;;
26686;SDS011;14298;50.900;4.648;2022-10-31T03:41:54;1.73;;;1.63;;
26686;SDS011;14298;50.900;4.648;2022-10-31T03:44:36;1.63;;;1.53;;
26686;SDS011;14298;50.900;4.648;2022-10-31T03:47:06;1.70;;;1.60;;
26686;SDS011;14298;50.900;4.648;2022-10-31T03:49:35;2.33;;;1.53;;
26686;SDS011;14298;50.900;4.648;2022-10-31T03:52:13;1.73;;;1.63;;
26686;SDS011;14298;50.900;4.648;2022-10-31T04:03:02;2.40;;;2.20;;
26686;SDS011;14298;50.900;4.648;2022-10-31T04:05:31;3.37;;;2.10;;
26686;SDS011;14298;50.900;4.648;2022-10-31T04:08:01;3.20;;;2.20;;
26686;SDS011;14298;50.900;4.648;2022-10-31T04:10:32;5.53;;;2.50;;
26686;SDS011;14298;50.900;4.648;2022-10-31T04:13:05;1.67;;;1.57;;
26686;SDS011;14298;50.900;4.648;2022-10-31T04:15:36;1.97;;;1.83;;
26686;SDS011;14298;50.900;4.648;2022-10-31T04:18:05;1.90;;;1.80;;
26686;SDS011;14298;50.900;4.648;2022-10-31T04:20:35;1.70;;;1.60;;
26686;SDS011;14298;50.900;4.648;2022-10-31T04:23:12;2.07;;;1.90;;
26686;SDS011;14298;50.900;4.648;2022-10-31T04:25:40;1.73;;;1.63;;
26686;SDS011;14298;50.900;4.648;2022-10-31T04:28:08;2.57;;;2.37;;
26686;SDS011;14298;50.900;4.648;2022-10-31T04:30:36;2.10;;;1.87;;
26686;SDS011;14298;50.900;4.648;2022-10-31T04:33:05;1.90;;;1.80;;
26686;SDS011;14298;50.900;4.648;2022-10-31T04:35:33;1.67;;;1.57;;
26686;SDS011;14298;50.900;4.648;2022-10-31T04:40:49;7.33;;;2.10;;
26686;SDS011;14298;50.900;4.648;2022-10-31T04:43:17;1.47;;;1.37;;
26686;SDS011;14298;50.900;4.648;2022-10-31T04:45:45;1.30;;;1.10;;
26686;SDS011;14298;50.900;4.648;2022-10-31T04:48:14;2.13;;;1.60;;
26686;SDS011;14298;50.900;4.648;2022-10-31T04:50:42;3.17;;;2.80;;
26686;SDS011;14298;50.900;4.648;2022-10-31T04:53:10;1.50;;;1.33;;
26686;SDS011;14298;50.900;4.648;2022-10-31T04:55:39;1.63;;;1.47;;
26686;SDS011;14298;50.900;4.648;2022-10-31T04:58:07;1.90;;;1.80;;
26686;SDS011;14298;50.900;4.648;2022-10-31T05:00:35;3.03;;;2.03;;
26686;SDS011;14298;50.900;4.648;2022-10-31T05:03:04;1.50;;;1.37;;
26686;SDS011;14298;50.900;4.648;2022-10-31T05:05:32;1.87;;;1.57;;
26686;SDS011;14298;50.900;4.648;2022-10-31T05:08:00;2.10;;;1.30;;
26686;SDS011;14298;50.900;4.648;2022-10-31T05:10:29;2.40;;;2.20;;
26686;SDS011;14298;50.900;4.648;2022-10-31T05:12:59;2.50;;;2.10;;
26686;SDS011;14298;50.900;4.648;2022-10-31T05:15:31;2.40;;;1.93;;
26686;SDS011;14298;50.900;4.648;2022-10-31T05:18:00;2.30;;;1.80;;
26686;SDS011;14298;50.900;4.648;2022-10-31T05:20:29;1.10;;;1.10;;
26686;SDS011;14298;50.900;4.648;2022-10-31T05:22:58;3.40;;;2.53;;
26686;SDS011;14298;50.900;4.648;2022-10-31T05:25:27;1.77;;;1.67;;
26686;SDS011;14298;50.900;4.648;2022-10-31T05:27:56;2.10;;;1.80;;
26686;SDS011;14298;50.900;4.648;2022-10-31T05:30:29;4.20;;;2.50;;
26686;SDS011;14298;50.900;4.648;2022-10-31T05:32:58;2.07;;;1.93;;
26686;SDS011;14298;50.900;4.648;2022-10-31T05:35:28;1.60;;;1.50;;
26686;SDS011;14298;50.900;4.648;2022-10-31T05:37:58;5.90;;;2.40;;
26686;SDS011;14298;50.900;4.648;2022-10-31T05:40:27;1.90;;;1.80;;
26686;SDS011;14298;50.900;4.648;2022-10-31T05:42:56;1.93;;;1.73;;
26686;SDS011;14298;50.900;4.648;2022-10-31T05:45:28;2.10;;;1.90;;
26686;SDS011;14298;50.900;4.648;2022-10-31T05:47:58;3.53;;;2.43;;
26686;SDS011;14298;50.900;4.648;2022-10-31T05:50:29;1.33;;;1.33;;
26686;SDS011;14298;50.900;4.648;2022-10-31T05:52:59;2.83;;;2.47;;
26686;SDS011;14298;50.900;4.648;2022-10-31T05:55:29;1.70;;;1.60;;
26686;SDS011;14298;50.900;4.648;2022-10-31T05:57:59;2.50;;;2.10;;
26686;SDS011;14298;50.900;4.648;2022-10-31T06:00:27;2.73;;;2.37;;
26686;SDS011;14298;50.900;4.648;2022-10-31T06:02:59;2.07;;;1.87;;
26686;SDS011;14298;50.900;4.648;2022-10-31T06:05:32;2.50;;;2.30;;
26686;SDS011;14298;50.900;4.648;2022-10-31T06:08:01;2.30;;;1.83;;
26686;SDS011;14298;50.900;4.648;2022-10-31T06:10:29;1.40;;;1.30;;
26686;SDS011;14298;50.900;4.648;2022-10-31T06:12:58;2.10;;;1.67;;
26686;SDS011;14298;50.900;4.648;2022-10-31T06:15:26;1.20;;;1.20;;
26686;SDS011;14298;50.900;4.648;2022-10-31T06:17:58;1.90;;;1.80;;
26686;SDS011;14298;50.900;4.648;2022-10-31T06:20:27;2.20;;;2.00;;
26686;SDS011;14298;50.900;4.648;2022-10-31T06:22:56;2.60;;;2.40;;
26686;SDS011;14298;50.900;4.648;2022-10-31T06:25:25;2.00;;;1.90;;
26686;SDS011;14298;50.900;4.648;2022-10-31T06:27:54;2.10;;;1.87;;
26686;SDS011;14298;50.900;4.648;2022-10-31T06:30:22;2.60;;;2.17;;
26686;SDS011;14298;50.900;4.648;2022-10-31T06:32:51;2.73;;;1.73;;
26686;SDS011;14298;50.900;4.648;2022-10-31T06:35:19;2.77;;;2.53;;
26686;SDS011;14298;50.900;4.648;2022-10-31T06:37:52;1.87;;;1.77;;
26686;SDS011;14298;50.900;4.648;2022-10-31T06:40:20;2.73;;;2.53;;
26686;SDS011;14298;50.900;4.648;2022-10-31T06:43:01;1.93;;;1.83;;
26686;SDS011;14298;50.900;4.648;2022-10-31T06:45:26;3.17;;;2.17;;
26686;SDS011;14298;50.900;4.648;2022-10-31T06:47:55;2.07;;;1.97;;
26686;SDS011;14298;50.900;4.648;2022-10-31T06:50:24;2.40;;;2.20;;
26686;SDS011;14298;50.900;4.648;2022-10-31T06:52:53;1.50;;;1.40;;
26686;SDS011;14298;50.900;4.648;2022-10-31T06:55:24;2.23;;;2.03;;
26686;SDS011;14298;50.900;4.648;2022-10-31T06:57:54;2.97;;;2.63;;
26686;SDS011;14298;50.900;4.648;2022-10-31T07:00:25;2.43;;;2.13;;
26686;SDS011;14298;50.900;4.648;2022-10-31T07:03:01;4.47;;;2.37;;
26686;SDS011;14298;50.900;4.648;2022-10-31T07:05:30;2.53;;;2.33;;
26686;SDS011;14298;50.900;4.648;2022-10-31T07:07:59;2.90;;;2.70;;
26686;SDS011;14298;50.900;4.648;2022-10-31T07:10:30;3.23;;;2.90;;
26686;SDS011;14298;50.900;4.648;2022-10-31T07:13:01;4.00;;;3.03;;
26686;SDS011;14298;50.900;4.648;2022-10-31T07:15:35;4.97;;;3.47;;
26686;SDS011;14298;50.900;4.648;2022-10-31T07:18:06;2.63;;;2.17;;
26686;SDS011;14298;50.900;4.648;2022-10-31T07:20:36;3.03;;;2.77;;
26686;SDS011;14298;50.900;4.648;2022-10-31T07:23:05;4.93;;;3.63;;
26686;SDS011;14298;50.900;4.648;2022-10-31T07:25:33;8.93;;;2.63;;
26686;SDS011;14298;50.900;4.648;2022-10-31T07:28:01;2.40;;;2.17;;
26686;SDS011;14298;50.900;4.648;2022-10-31T07:30:30;3.70;;;3.07;;
26686;SDS011;14298;50.900;4.648;2022-10-31T07:32:58;4.50;;;3.33;;
26686;SDS011;14298;50.900;4.648;2022-10-31T07:35:27;3.33;;;2.53;;
26686;SDS011;14298;50.900;4.648;2022-10-31T07:37:56;3.40;;;3.03;;
26686;SDS011;14298;50.900;4.648;2022-10-31T07:40:25;3.20;;;2.60;;
26686;SDS011;14298;50.900;4.648;2022-10-31T07:42:53;2.53;;;2.23;;
26686;SDS011;14298;50.900;4.648;2022-10-31T07:45:21;2.60;;;2.40;;
26686;SDS011;14298;50.900;4.648;2022-10-31T07:47:50;3.53;;;2.77;;
26686;SDS011;14298;50.900;4.648;2022-10-31T07:50:25;3.83;;;3.30;;
26686;SDS011;14298;50.900;4.648;2022-10-31T07:53:07;2.97;;;2.70;;
26686;SDS011;14298;50.900;4.648;2022-10-31T07:55:37;2.60;;;2.40;;
26686;SDS011;14298;50.900;4.648;2022-10-31T07:58:13;3.23;;;2.93;;
26686;SDS011;14298;50.900;4.648;2022-10-31T08:00:43;5.37;;;2.80;;
26686;SDS011;14298;50.900;4.648;2022-10-31T08:06:01;3.27;;;2.47;;
26686;SDS011;14298;50.900;4.648;2022-10-31T08:08:29;2.80;;;2.60;;
26686;SDS011;14298;50.900;4.648;2022-10-31T08:10:58;2.63;;;2.43;;
26686;SDS011;14298;50.900;4.648;2022-10-31T08:13:27;9.67;;;3.47;;
26686;SDS011;14298;50.900;4.648;2022-10-31T08:15:56;3.60;;;2.93;;
26686;SDS011;14298;50.900;4.648;2022-10-31T08:18:27;2.67;;;2.40;;
26686;SDS011;14298;50.900;4.648;2022-10-31T08:20:55;3.07;;;2.87;;
26686;SDS011;14298;50.900;4.648;2022-10-31T08:23:24;3.40;;;2.53;;
26686;SDS011;14298;50.900;4.648;2022-10-31T08:25:52;3.10;;;2.57;;
26686;SDS011;14298;50.900;4.648;2022-10-31T08:28:20;2.73;;;2.53;;
26686;SDS011;14298;50.900;4.648;2022-10-31T08:30:48;3.83;;;3.17;;
26686;SDS011;14298;50.900;4.648;2022-10-31T08:33:17;5.47;;;3.63;;
26686;SDS011;14298;50.900;4.648;2022-10-31T08:35:46;4.63;;;2.80;;
26686;SDS011;14298;50.900;4.648;2022-10-31T08:38:16;1.87;;;1.77;;
26686;SDS011;14298;50.900;4.648;2022-10-31T08:40:47;3.77;;;3.13;;
26686;SDS011;14298;50.900;4.648;2022-10-31T08:43:16;2.60;;;2.40;;
26686;SDS011;14298;50.900;4.648;2022-10-31T08:45:47;3.97;;;2.90;;
26686;SDS011;14298;50.900;4.648;2022-10-31T08:48:16;2.43;;;2.27;;
26686;SDS011;14298;50.900;4.648;2022-10-31T08:50:45;4.10;;;2.53;;
26686;SDS011;14298;50.900;4.648;2022-10-31T08:53:17;2.77;;;2.27;;
26686;SDS011;14298;50.900;4.648;2022-10-31T08:55:46;2.57;;;2.07;;
26686;SDS011;14298;50.900;4.648;2022-10-31T08:58:15;3.57;;;3.00;;
26686;SDS011;14298;50.900;4.648;2022-10-31T09:00:47;3.10;;;2.80;;
26686;SDS011;14298;50.900;4.648;2022-10-31T09:03:22;3.33;;;2.63;;
26686;SDS011;14298;50.900;4.648;2022-10-31T09:05:54;2.87;;;2.60;;
26686;SDS011;14298;50.900;4.648;2022-10-31T09:08:25;4.57;;;2.80;;
26686;SDS011;14298;50.900;4.648;2022-10-31T09:10:58;3.60;;;1.90;;
26686;SDS011;14298;50.900;4.648;2022-10-31T09:13:27;14.87;;;3.20;;
26686;SDS011;14298;50.900;4.648;2022-10-31T09:15:55;3.57;;;2.53;;
26686;SDS011;14298;50.900;4.648;2022-10-31T09:18:25;3.30;;;2.60;;
26686;SDS011;14298;50.900;4.648;2022-10-31T09:20:56;6.67;;;2.73;;
26686;SDS011;14298;50.900;4.648;2022-10-31T09:23:25;3.87;;;2.70;;
26686;SDS011;14298;50.900;4.648;2022-10-31T09:25:53;3.03;;;2.33;;
26686;SDS011;14298;50.900;4.648;2022-10-31T09:28:22;4.07;;;2.90;;
26686;SDS011;14298;50.900;4.648;2022-10-31T09:30:52;2.90;;;2.47;;
26686;SDS011;14298;50.900;4.648;2022-10-31T09:33:21;2.80;;;2.30;;
26686;SDS011;14298;50.900;4.648;2022-10-31T09:35:49;2.20;;;2.00;;
26686;SDS011;14298;50.900;4.648;2022-10-31T09:38:19;2.57;;;2.37;;
26686;SDS011;14298;50.900;4.648;2022-10-31T09:40:54;2.30;;;2.10;;
26686;SDS011;14298;50.900;4.648;2022-10-31T09:43:48;4.07;;;3.17;;
26686;SDS011;14298;50.900;4.648;2022-10-31T09:46:28;3.40;;;2.67;;
26686;SDS011;14298;50.900;4.648;2022-10-31T09:49:24;3.23;;;2.87;;
26686;SDS011;14298;50.900;4.648;2022-10-31T09:52:03;2.50;;;2.30;;
26686;SDS011;14298;50.900;4.648;2022-10-31T09:54:41;3.27;;;2.97;;
26686;SDS011;14298;50.900;4.648;2022-10-31T09:57:13;3.10;;;2.63;;
26686;SDS011;14298;50.900;4.648;2022-10-31T09:59:44;2.90;;;2.50;;
26686;SDS011;14298;50.900;4.648;2022-10-31T10:10:15;2.90;;;2.23;;
26686;SDS011;14298;50.900;4.648;2022-10-31T10:16:03;6.60;;;3.03;;
26686;SDS011;14298;50.900;4.648;2022-10-31T10:24:14;2.80;;;2.60;;
26686;SDS011;14298;50.900;4.648;2022-10-31T10:28:47;3.17;;;2.63;;
26686;SDS011;14298;50.900;4.648;2022-10-31T10:31:21;2.73;;;2.50;;
26686;SDS011;14298;50.900;4.648;2022-10-31T10:33:57;3.17;;;2.83;;
26686;SDS011;14298;50.900;4.648;2022-10-31T10:36:39;2.73;;;2.50;;
26686;SDS011;14298;50.900;4.648;2022-10-31T10:39:14;3.37;;;3.07;;
26686;SDS011;14298;50.900;4.648;2022-10-31T10:41:44;4.53;;;3.13;;
26686;SDS011;14298;50.900;4.648;2022-10-31T10:44:16;3.50;;;2.77;;
26686;SDS011;14298;50.900;4.648;2022-10-31T10:46:51;3.43;;;2.43;;
26686;SDS011;14298;50.900;4.648;2022-10-31T10:55:04;3.70;;;2.63;;
26686;SDS011;14298;50.900;4.648;2022-10-31T11:00:29;2.57;;;2.23;;
26686;SDS011;14298;50.900;4.648;2022-10-31T11:03:01;5.37;;;2.37;;
26686;SDS011;14298;50.900;4.648;2022-10-31T11:05:41;5.60;;;2.70;;
26686;SDS011;14298;50.900;4.648;2022-10-31T11:08:23;11.27;;;3.13;;
26686;SDS011;14298;50.900;4.648;2022-10-31T11:13:48;2.60;;;2.40;;
26686;SDS011;14298;50.900;4.648;2022-10-31T11:16:32;2.87;;;2.53;;
26686;SDS011;14298;50.900;4.648;2022-10-31T11:21:51;3.03;;;2.73;;
26686;SDS011;14298;50.900;4.648;2022-10-31T11:24:21;2.30;;;2.10;;
26686;SDS011;14298;50.900;4.648;2022-10-31T11:29:43;1.27;;;1.17;;
26686;SDS011;14298;50.900;4.648;2022-10-31T11:32:24;5.03;;;1.27;;
26686;SDS011;14298;50.900;4.648;2022-10-31T11:35:02;2.37;;;1.50;;
26686;SDS011;14298;50.900;4.648;2022-10-31T11:37:32;5.40;;;1.40;;
26686;SDS011;14298;50.900;4.648;2022-10-31T11:39:59;4.43;;;2.53;;
26686;SDS011;14298;50.900;4.648;2022-10-31T11:42:40;14.60;;;1.97;;
26686;SDS011;14298;50.900;4.648;2022-10-31T11:45:14;3.47;;;1.23;;
26686;SDS011;14298;50.900;4.648;2022-10-31T11:47:47;3.03;;;1.60;;
26686;SDS011;14298;50.900;4.648;2022-10-31T11:50:19;2.13;;;1.93;;
26686;SDS011;14298;50.900;4.648;2022-10-31T11:52:49;9.30;;;3.20;;
26686;SDS011;14298;50.900;4.648;2022-10-31T11:55:35;4.27;;;1.47;;
26686;SDS011;14298;50.900;4.648;2022-10-31T11:58:19;1.63;;;1.33;;
26686;SDS011;14298;50.900;4.648;2022-10-31T12:00:49;4.93;;;2.57;;
26686;SDS011;14298;50.900;4.648;2022-10-31T12:06:22;4.50;;;2.00;;
26686;SDS011;14298;50.900;4.648;2022-10-31T12:08:55;1.13;;;1.10;;
26686;SDS011;14298;50.900;4.648;2022-10-31T12:11:36;5.77;;;1.50;;
26686;SDS011;14298;50.900;4.648;2022-10-31T12:14:28;2.40;;;2.20;;
26686;SDS011;14298;50.900;4.648;2022-10-31T12:17:14;2.00;;;1.63;;
26686;SDS011;14298;50.900;4.648;2022-10-31T12:22:36;1.57;;;1.47;;
26686;SDS011;14298;50.900;4.648;2022-10-31T12:27:57;1.40;;;1.30;;
26686;SDS011;14298;50.900;4.648;2022-10-31T12:33:34;1.70;;;1.20;;
26686;SDS011;14298;50.900;4.648;2022-10-31T12:36:21;1.47;;;1.37;;
26686;SDS011;14298;50.900;4.648;2022-10-31T12:39:02;1.60;;;1.50;;
26686;SDS011;14298;50.900;4.648;2022-10-31T12:41:56;2.63;;;2.13;;
26686;SDS011;14298;50.900;4.648;2022-10-31T12:47:17;2.30;;;1.03;;
26686;SDS011;14298;50.900;4.648;2022-10-31T13:03:42;2.70;;;1.60;;
26686;SDS011;14298;50.900;4.648;2022-10-31T13:06:14;1.37;;;1.27;;
26686;SDS011;14298;50.900;4.648;2022-10-31T13:08:54;2.07;;;1.87;;
26686;SDS011;14298;50.900;4.648;2022-10-31T13:11:30;2.70;;;1.37;;
26686;SDS011;14298;50.900;4.648;2022-10-31T13:13:59;1.20;;;1.10;;
26686;SDS011;14298;50.900;4.648;2022-10-31T13:16:41;2.63;;;1.50;;
26686;SDS011;14298;50.900;4.648;2022-10-31T13:19:22;3.13;;;1.67;;
26686;SDS011;14298;50.900;4.648;2022-10-31T13:25:55;2.33;;;1.00;;
26686;SDS011;14298;50.900;4.648;2022-10-31T13:27:48;1.60;;;1.40;;
26686;SDS011;14298;50.900;4.648;2022-10-31T13:30:18;0.93;;;0.93;;
26686;SDS011;14298;50.900;4.648;2022-10-31T13:32:59;2.13;;;0.93;;
26686;SDS011;14298;50.900;4.648;2022-10-31T13:38:28;0.97;;;0.97;;
26686;SDS011;14298;50.900;4.648;2022-10-31T13:44:02;0.90;;;0.83;;
26686;SDS011;14298;50.900;4.648;2022-10-31T13:46:38;1.43;;;1.33;;
26686;SDS011;14298;50.900;4.648;2022-10-31T13:52:10;0.97;;;0.63;;
26686;SDS011;14298;50.900;4.648;2022-10-31T13:54:41;1.37;;;1.03;;
26686;SDS011;14298;50.900;4.648;2022-10-31T13:57:31;1.43;;;1.33;;
26686;SDS011;14298;50.900;4.648;2022-10-31T14:00:03;1.30;;;1.20;;
26686;SDS011;14298;50.900;4.648;2022-10-31T14:02:33;1.80;;;1.30;;
26686;SDS011;14298;50.900;4.648;2022-10-31T14:05:15;2.53;;;0.80;;
26686;SDS011;14298;50.900;4.648;2022-10-31T14:07:56;1.70;;;1.13;;
26686;SDS011;14298;50.900;4.648;2022-10-31T14:10:35;2.80;;;1.13;;
26686;SDS011;14298;50.900;4.648;2022-10-31T14:15:57;1.37;;;0.77;;
26686;SDS011;14298;50.900;4.648;2022-10-31T14:18:31;2.33;;;1.37;;
26686;SDS011;14298;50.900;4.648;2022-10-31T14:23:58;4.43;;;1.27;;
26686;SDS011;14298;50.900;4.648;2022-10-31T14:26:31;1.37;;;1.27;;
26686;SDS011;14298;50.900;4.648;2022-10-31T14:31:52;3.77;;;1.80;;
26686;SDS011;14298;50.900;4.648;2022-10-31T14:34:39;2.20;;;1.50;;
26686;SDS011;14298;50.900;4.648;2022-10-31T14:37:24;1.97;;;1.20;;
26686;SDS011;14298;50.900;4.648;2022-10-31T14:40:00;2.17;;;1.10;;
26686;SDS011;14298;50.900;4.648;2022-10-31T14:42:56;1.37;;;1.27;;
26686;SDS011;14298;50.900;4.648;2022-10-31T14:48:23;1.70;;;1.60;;
26686;SDS011;14298;50.900;4.648;2022-10-31T14:50:54;5.37;;;2.73;;
26686;SDS011;14298;50.900;4.648;2022-10-31T14:53:26;1.40;;;1.17;;
26686;SDS011;14298;50.900;4.648;2022-10-31T14:55:56;1.17;;;1.07;;
26686;SDS011;14298;50.900;4.648;2022-10-31T15:00:58;2.10;;;1.83;;
26686;SDS011;14298;50.900;4.648;2022-10-31T15:03:39;1.97;;;1.77;;
26686;SDS011;14298;50.900;4.648;2022-10-31T15:06:11;1.93;;;1.67;;
26686;SDS011;14298;50.900;4.648;2022-10-31T15:08:45;3.17;;;1.73;;
26686;SDS011;14298;50.900;4.648;2022-10-31T15:11:16;2.40;;;2.20;;
26686;SDS011;14298;50.900;4.648;2022-10-31T15:13:47;3.00;;;2.37;;
26686;SDS011;14298;50.900;4.648;2022-10-31T15:16:21;3.13;;;1.87;;
26686;SDS011;14298;50.900;4.648;2022-10-31T15:18:59;2.07;;;1.87;;
26686;SDS011;14298;50.900;4.648;2022-10-31T15:21:33;2.30;;;2.10;;
26686;SDS011;14298;50.900;4.648;2022-10-31T15:24:03;4.60;;;2.43;;
26686;SDS011;14298;50.900;4.648;2022-10-31T15:26:33;2.87;;;2.37;;
26686;SDS011;14298;50.900;4.648;2022-10-31T15:29:11;4.00;;;3.10;;
26686;SDS011;14298;50.900;4.648;2022-10-31T15:32:00;5.00;;;2.27;;
26686;SDS011;14298;50.900;4.648;2022-10-31T15:34:39;4.33;;;2.23;;
26686;SDS011;14298;50.900;4.648;2022-10-31T15:37:11;2.83;;;2.20;;
26686;SDS011;14298;50.900;4.648;2022-10-31T15:39:42;1.70;;;1.60;;
26686;SDS011;14298;50.900;4.648;2022-10-31T15:45:32;2.77;;;2.33;;
26686;SDS011;14298;50.900;4.648;2022-10-31T15:47:38;2.07;;;1.90;;
26686;SDS011;14298;50.900;4.648;2022-10-31T15:50:18;14.83;;;2.27;;
26686;SDS011;14298;50.900;4.648;2022-10-31T15:52:49;1.83;;;1.73;;
26686;SDS011;14298;50.900;4.648;2022-10-31T15:57:52;2.70;;;1.97;;
26686;SDS011;14298;50.900;4.648;2022-10-31T16:00:27;3.83;;;3.37;;
26686;SDS011;14298;50.900;4.648;2022-10-31T16:05:48;2.13;;;1.60;;
26686;SDS011;14298;50.900;4.648;2022-10-31T16:14:04;4.30;;;1.93;;
26686;SDS011;14298;50.900;4.648;2022-10-31T16:16:31;2.70;;;2.43;;
26686;SDS011;14298;50.900;4.648;2022-10-31T16:19:02;6.10;;;2.40;;
26686;SDS011;14298;50.900;4.648;2022-10-31T16:21:36;3.20;;;2.90;;
26686;SDS011;14298;50.900;4.648;2022-10-31T16:24:13;2.50;;;2.13;;
26686;SDS011;14298;50.900;4.648;2022-10-31T16:26:57;4.20;;;1.97;;
26686;SDS011;14298;50.900;4.648;2022-10-31T16:40:29;1.70;;;1.60;;
26686;SDS011;14298;50.900;4.648;2022-10-31T16:42:59;5.27;;;2.40;;
26686;SDS011;14298;50.900;4.648;2022-10-31T16:45:29;2.70;;;2.50;;
26686;SDS011;14298;50.900;4.648;2022-10-31T16:48:03;5.33;;;2.70;;
26686;SDS011;14298;50.900;4.648;2022-10-31T16:50:33;2.77;;;2.07;;
26686;SDS011;14298;50.900;4.648;2022-10-31T16:53:03;2.63;;;1.60;;
26686;SDS011;14298;50.900;4.648;2022-10-31T16:55:32;7.50;;;1.10;;
26686;SDS011;14298;50.900;4.648;2022-10-31T16:58:01;2.20;;;1.37;;
26686;SDS011;14298;50.900;4.648;2022-10-31T17:00:30;2.93;;;1.90;;
26686;SDS011;14298;50.900;4.648;2022-10-31T17:02:58;2.47;;;1.07;;
26686;SDS011;14298;50.900;4.648;2022-10-31T17:05:27;0.93;;;0.83;;
26686;SDS011;14298;50.900;4.648;2022-10-31T17:07:56;3.87;;;1.80;;
26686;SDS011;14298;50.900;4.648;2022-10-31T17:10:29;0.80;;;0.80;;
26686;SDS011;14298;50.900;4.648;2022-10-31T17:13:00;1.87;;;1.57;;
26686;SDS011;14298;50.900;4.648;2022-10-31T17:15:32;3.83;;;1.57;;
26686;SDS011;14298;50.900;4.648;2022-10-31T17:18:01;2.30;;;1.60;;
26686;SDS011;14298;50.900;4.648;2022-10-31T17:20:30;2.17;;;1.63;;
26686;SDS011;14298;50.900;4.648;2022-10-31T17:22:58;2.63;;;1.40;;
26686;SDS011;14298;50.900;4.648;2022-10-31T17:25:28;2.67;;;1.90;;
26686;SDS011;14298;50.900;4.648;2022-10-31T17:28:01;3.30;;;1.53;;
26686;SDS011;14298;50.900;4.648;2022-10-31T17:30:30;1.77;;;1.50;;
26686;SDS011;14298;50.900;4.648;2022-10-31T17:32:59;2.03;;;1.00;;
26686;SDS011;14298;50.900;4.648;2022-10-31T17:35:28;0.70;;;0.70;;
26686;SDS011;14298;50.900;4.648;2022-10-31T17:37:56;0.87;;;0.83;;
26686;SDS011;14298;50.900;4.648;2022-10-31T17:40:24;1.00;;;0.97;;
26686;SDS011;14298;50.900;4.648;2022-10-31T17:42:54;0.63;;;0.63;;
26686;SDS011;14298;50.900;4.648;2022-10-31T17:45:24;1.63;;;1.10;;
26686;SDS011;14298;50.900;4.648;2022-10-31T17:47:53;2.13;;;1.90;;
26686;SDS011;14298;50.900;4.648;2022-10-31T17:50:22;1.50;;;1.40;;
26686;SDS011;14298;50.900;4.648;2022-10-31T17:52:52;5.47;;;1.40;;
26686;SDS011;14298;50.900;4.648;2022-10-31T17:55:20;4.57;;;1.53;;
26686;SDS011;14298;50.900;4.648;2022-10-31T17:57:49;2.20;;;1.47;;
26686;SDS011;14298;50.900;4.648;2022-10-31T18:00:18;3.60;;;1.67;;
26686;SDS011;14298;50.900;4.648;2022-10-31T18:02:49;2.40;;;1.47;;